Mesquite, Nevada Weather observations

Data are for observation ending at time listed.
 Day   Time    Ave.   Ave.  Ave.  Vector   Max.   Stn.    Total    Solar   Ave.  
  of    of     Air    Rel.  Wind   Wind    Wind   Baro.  Precip.   Rad.    Soil  
Year   Day     Temp.  Hum.  Speed  Dir.    Gust   Pres.                    Temp. 
2015   (PST)    F      %     mph   deg.    mph     mb.     in.     W/m2     F   
------------------------------------------------------------------------------
 116   19:20   65.9    19    3.6    14     10.5   949.2    0.00       0    70.2
 116   19:30   65.7    19    2.9    12      9.6   949.4    0.00       0    69.8
 116   19:40   65.2    19    2.9    13      8.5   949.6    0.00       0    69.4
 116   19:50   64.8    20    2.9     2      7.9   949.8    0.00       0    69.0
 116   20:00   64.2    20    2.8   358      7.2   949.9    0.00       0    68.5
 116   20:10   63.9    20    1.5   348      4.9   950.1    0.00       0    68.1
 116   20:20   64.2    20    2.5   343      8.6   950.3    0.00       0    68.1
 116   20:30   64.3    20    3.7   338      9.2   950.5    0.00       0    67.9
 116   20:40   64.2    20    4.4   344     11.5   950.6    0.00       0    67.8
 116   20:50   63.8    20    3.3   346      9.6   950.7    0.00       0    67.4
 116   21:00   63.5    21    1.7   336      8.3   950.8    0.00       0    67.1
 116   21:10   63.2    22    0.8   342      6.9   950.9    0.00       0    66.7
 116   21:20   62.8    23    4.6   342     15.0   950.9    0.00       0    66.7
 116   21:30   63.6    22    7.9   333     15.4   950.9    0.00       0    66.9
 116   21:40   63.6    22   11.3   335     21.3   950.8    0.00       0    66.8
 116   21:50   63.7    22   11.4   336     17.8   950.9    0.00       0    66.8
 116   22:00   63.7    23   10.4   336     21.0   950.9    0.00       0    66.9
 116   22:10   63.5    23   11.8   338     23.1   950.9    0.00       0    66.8
 116   22:20   63.4    23   13.9   337     24.5   950.9    0.00       0    66.8
 116   22:30   63.2    24   14.3   338     23.5   950.9    0.00       0    66.8
 116   22:40   63.2    24   14.9   338     22.7   950.9    0.00       0    66.7
 116   22:50   63.0    24   14.0   340     22.0   951.1    0.00       0    66.5
 116   23:00   63.0    24   10.8   341     21.3   951.1    0.00       0    66.4
 116   23:10   63.0    24   12.1   340     22.4   951.1    0.00       0    66.2
 116   23:20   62.9    25   12.6   342     22.9   951.2    0.00       0    66.1
 116   23:30   62.5    25    9.7   347     16.6   951.3    0.00       0    65.8
 116   23:40   62.5    26    8.0   348     18.3   951.4    0.00       0    65.7
 116   23:50   61.6    26    4.0    15     12.9   951.5    0.00       0    65.4
 117    0:00   60.5    27    5.2    14     12.1   951.4    0.00       0    65.0
 117    0:10   61.6    26    8.5   345     12.9   951.3    0.00       0    65.2
 117    0:20   62.0    26    7.3   349     15.2   951.3    0.00       0    65.2
 117    0:30   61.9    26    6.8   359     13.7   951.3    0.00       0    65.1
 117    0:40   58.4    29    3.1    15      7.0   951.2    0.00       0    63.9
 117    0:50   58.1    30    4.7    18     10.9   951.2    0.00       0    63.9
 117    1:00   55.8    32    3.3    27      5.3   951.2    0.00       0    62.8
 117    1:10   55.3    34    3.6    35      5.0   951.2    0.00       0    62.8
 117    1:20   53.8    36    3.1    42      5.3   951.2    0.00       0    62.0
 117    1:30   52.6    38    4.1    46      6.6   951.2    0.00       0    61.7
 117    1:40   52.1    40    1.5    34      5.2   951.3    0.00       0    61.4
 117    1:50   51.9    40    2.6    45      7.1   951.3    0.00       0    61.3
 117    2:00   52.1    40    0.3    40      4.3   951.4    0.00       0    61.3
 117    2:10   52.2    40    0.0    28      1.7   951.5    0.00       0    61.2
 117    2:20   52.1    40    0.1    28      2.7   951.5    0.00       0    60.9
 117    2:30   52.3    39    0.0    28      1.7   951.6    0.00       0    61.1
 117    2:40   52.5    39    0.0     0      0.0   951.6    0.00       0    60.9
 117    2:50   52.3    39    0.0     0      0.0   951.6    0.00       0    60.8
 117    3:00   52.3    39    0.0     0      0.0   951.7    0.00       0    60.8
 117    3:10   51.8    40    0.0     0      0.0   951.7    0.00       0    60.4
 117    3:20   51.6    40    0.4    47      3.8   951.8    0.00       0    60.3
 117    3:30   52.0    39    0.0    40      0.1   951.7    0.00       0    60.3
 117    3:40   52.1    39    0.0    42      0.1   951.8    0.00       0    60.3
 117    3:50   52.0    39    0.0     0      0.0   952.0    0.00       0    60.1
 117    4:00   51.7    39    0.0     0      0.0   952.1    0.00       0    59.8
 117    4:10   51.9    39    0.0     0      0.0   952.2    0.00       0    59.6
 117    4:20   52.0    39    0.0     0      0.0   952.3    0.00       0    59.1
 117    4:30   51.3    40    0.0     0      0.0   952.4    0.00       0    58.6
 117    4:40   50.2    42    2.2    59      4.5   952.5    0.00       1    58.1
 117    4:50   50.2    43    0.6   349      2.5   952.7    0.00       3    58.3
 117    5:00   50.7    41    4.6    11      6.6   952.9    0.00       5    59.0
 117    5:10   51.0    40    6.0    17      7.4   952.9    0.00       8    59.2
 117    5:20   51.7    39    4.8    16      7.1   953.0    0.00      24    59.5
 117    5:30   54.2    36    5.9    44      7.5   953.1    0.00      59    60.6
 117    5:40   55.5    34    5.5    49      7.5   953.3    0.00      86    61.1
 117    5:50   56.3    34    4.4    47      5.6   953.4    0.00     109    61.6
 117    6:00   57.1    33    4.2    50      5.8   953.4    0.00     137    62.2
 117    6:10   58.0    33    1.9    59      4.2   953.5    0.00     162    62.6
 117    6:20   57.8    34    1.6    60      5.2   953.7    0.00     189    62.7
 117    6:30   58.4    32    2.3    73      5.1   953.7    0.00     216    63.2
 117    6:40   58.7    31    3.4    60      6.8   953.8    0.00     244    63.9
 117    6:50   60.0    30    2.9    70      6.6   954.0    0.00     273    64.8
 117    7:00   61.1    29    2.6    87      6.0   953.9    0.00     301    64.7
 117    7:10   62.1    28    2.0    77      4.0   954.1    0.00     329    65.6
 117    7:20   62.9    28    3.2    66      5.0   954.1    0.00     357    65.9
 117    7:30   64.0    27    3.3    81      4.7   954.2    0.00     385    66.3
 117    7:40   64.5    26    3.2    92      5.7   954.2    0.00     412    66.2
 117    7:50   65.2    26    3.2    83      6.8   954.3    0.00     438    66.9
 117    8:00   65.8    25    3.3    87      5.9   954.3    0.00     464    67.5
 117    8:10   67.0    23    2.8    69      6.5   954.3    0.00     489    68.7
 117    8:20   67.7    22    2.9    64      5.9   954.3    0.00     513    69.5
 117    8:30   67.4    22    5.1    78      8.7   954.3    0.00     536    71.3
 117    8:40   68.2    22    4.1   100      7.9   954.3    0.00     559    71.9
 117    8:50   69.5    21    2.4   144      5.4   954.3    0.00     579    71.6
 117    9:00   70.1    20    2.5   149      6.6   954.2    0.00     598    71.5
 117    9:10   71.0    20    3.0   136      6.2   954.3    0.00     616    73.3
 117    9:20   71.5    19    3.1   110      9.1   954.2    0.00     631    73.3
 117    9:30   70.9    20    4.2   125      8.0   954.1    0.00     651    73.6
 117    9:40   71.9    19    2.1   149      4.4   954.1    0.00     661    72.7
 117    9:50   72.1    18    4.2    89      9.6   954.1    0.00     674    73.9
 117   10:00   72.8    18    5.3   105     11.0   954.1    0.00     688    74.6
 117   10:10   74.8    17    3.1   120      6.8   953.9    0.00     690    74.4
 117   10:20   75.3    16    2.0   104      5.8   953.8    0.00     697    74.6
 117   10:30   75.6    16    4.2   102      9.3   953.8    0.00     702    75.1
 117   10:40   74.7    17    5.1   108     11.5   953.7    0.00     715    75.8
 117   10:50   75.0    16    5.5    66     10.9   953.6    0.00     723    76.6
 117   11:00   75.1    16    5.4    66     14.5   953.5    0.00     729    76.6
 117   11:10   75.5    16    5.6    58     11.5   953.4    0.00     731    76.9
 117   11:20   76.3    16    4.2    66      9.1   953.2    0.00     732    77.3
 117   11:30   75.9    16    3.3   311     11.3   953.1    0.00     732    75.9
 117   11:40   76.5    16    2.8   244      7.3   952.9    0.00     730    76.2
 117   11:50   76.8    16    4.9   314      9.4   952.7    0.00     728    77.3
 117   12:00   77.7    15    3.8    73      9.6   952.6    0.00     726    77.5
 117   12:10   78.0    15    3.3    67      7.7   952.5    0.00     725    78.5
 117   12:20   78.0    15    4.1   346     10.4   952.4    0.00     719    78.2
 117   12:30   77.8    15    2.5   122      8.0   952.2    0.00     714    78.2
 117   12:40   78.6    15    8.0    92     13.3   952.1    0.00     708    79.8
 117   12:50   79.3    15    5.0   114     10.4   951.9    0.00     700    79.8
 117   13:00   80.5    14    2.7    21      9.6   951.8    0.00     689    80.8
 117   13:10   79.8    14    2.6    63     10.4   951.7    0.00     676    80.4
 117   13:20   80.2    14    1.4   122      8.3   951.4    0.00     665    80.3
 117   13:30   80.7    14    2.2    79     11.3   951.2    0.00     652    82.0
 117   13:40   80.5    14    6.2    77     15.4   951.1    0.00     638    84.4
 117   13:50   80.9    14    2.6    82     10.8   950.9    0.00     623    85.9
 117   14:00   81.3    14    3.2    24     12.1   950.8    0.00     609    87.2
 117   14:10   82.1    14    0.0    62      0.7   950.5    0.00     590    88.5
 117   14:20   82.5    14    0.2   174      6.9   950.3    0.00     570    90.1
 117   14:30   81.8    14    3.1    15     12.1   950.2    0.00     551    93.9
 117   14:40   82.0    14    0.9   348     10.6   950.1    0.00     530    95.1
 117   14:50   81.1    14    0.6   254      5.5   949.9    0.00     510    92.6
 117   15:00   81.6    14    0.5   323      5.1   949.7    0.00     489    93.8
 117   15:10   82.4    14    0.7    28      9.6   949.6    0.00     466    99.6
 117   15:20   82.7    14    3.6   283      8.8   949.6    0.00     442    95.0
 117   15:30   82.5    14    8.0   325     24.3   949.5    0.00     419    93.8
 117   15:40   82.0    14    6.4   322     12.7   949.5    0.00     396    93.8
 117   15:50   81.8    14    3.2   314     12.3   949.4    0.00     371    93.3
 117   16:00   82.9    13    1.9    13      9.6   949.3    0.00     344    97.0
 117   16:10   82.9    13    1.5   338     10.5   949.3    0.00     318    96.4
 117   16:20   82.4    14    6.3   304     13.7   949.3    0.00     290    92.3
 117   16:30   81.8    14    6.3   312     14.0   949.3    0.00     264    91.3
 117   16:40   81.7    14    7.1   310     17.2   949.2    0.00     237    90.3
 117   16:50   82.1    14    6.5   354     15.6   949.1    0.00     210    91.9
 117   17:00   82.0    14    6.2   329     13.3   949.1    0.00     184    90.7
 117   17:10   81.5    15   10.4   317     18.8   949.0    0.00     158    88.7
 117   17:20   81.5    15    7.3   332     17.3   949.1    0.00     133    88.8
 117   17:30   80.8    15    9.6   320     19.0   949.1    0.00     111    87.1
 117   17:40   80.9    15    6.8   331     15.2   949.2    0.00      87    86.7
 117   17:50   80.5    15    8.6   343     17.5   949.3    0.00      61    85.3
 117   18:00   79.8    15    9.0   344     20.5   949.4    0.00      38    83.2
 117   18:10   78.9    16    7.0   350     18.6   949.4    0.00      15    82.2
 117   18:20   78.2    16    7.9   346     21.0   949.5    0.00       8    81.3
 117   18:30   77.7    17    7.2   344     16.2   949.6    0.00       3    80.7
 117   18:40   77.2    17    8.0   344     18.0   949.7    0.00       3    80.1
 117   18:50   76.8    18    8.2   348     18.8   949.8    0.00       1    79.6
 117   19:00   76.2    18    7.4   354     19.6   950.0    0.00       1    79.1
 117   19:10   75.9    18    8.2   355     19.2   950.0    0.00       0    78.7

Return to Mesquite, Nevada graphs page.


Western Regional Climate Center,wrcc@dri.edu